createdAt,value
2023-01-11T00:11:58.729Z,0.26755852842809363
2023-01-11T00:18:20.951Z,0.2608695652173913
2023-01-11T00:24:44.127Z,0.44816053511705684
2023-01-11T00:36:56.535Z,0.2608695652173913
2023-01-11T00:43:19.812Z,0.5284280936454849
2023-01-11T00:49:43.267Z,0.09364548494983277
2023-01-11T00:56:05.805Z,0.26755852842809363
2023-01-11T01:02:28.277Z,0.14715719063545152
2023-01-11T01:08:51.388Z,0.26755852842809363
2023-01-11T01:15:13.937Z,0.3612040133779264
2023-01-11T01:21:37.082Z,0.1806020066889632
2023-01-11T01:27:59.740Z,0.08695652173913043
2023-01-11T01:34:21.964Z,0.3612040133779264
2023-01-11T01:40:44.853Z,0.08695652173913043
2023-01-11T01:47:07.753Z,0.3879598662207358
2023-01-11T01:53:30.171Z,0.17391304347826086
2023-01-11T01:59:54.111Z,0.08695652173913043
2023-01-11T02:11:08.876Z,0.08695652173913043
2023-01-11T02:17:30.559Z,0.3612040133779264
2023-01-11T02:33:35.005Z,0.4414715719063545
2023-01-11T02:39:57.592Z,0.35451505016722407
2023-01-11T02:48:45.905Z,0.26755852842809363
2023-01-11T02:55:07.487Z,0.0
2023-01-11T03:01:29.423Z,0.17391304347826086
2023-01-11T03:07:52.627Z,0.0
2023-01-11T03:14:15.119Z,0.35451505016722407
2023-01-11T03:31:40.726Z,0.48494983277591974
2023-01-11T03:38:03.998Z,0.04013377926421405
2023-01-11T03:44:27.499Z,0.22073578595317725
2023-01-11T03:50:49.951Z,0.0
2023-01-11T03:57:11.537Z,0.1806020066889632
2023-01-11T04:03:34.221Z,0.08695652173913043
2023-01-11T04:09:57.523Z,0.17391304347826086
2023-01-11T04:16:18.887Z,0.36789297658862874
2023-01-11T04:22:41.448Z,0.18729096989966554
2023-01-11T04:29:04.049Z,0.26755852842809363
2023-01-11T04:35:26.612Z,0.08695652173913043
2023-01-11T04:41:49.771Z,0.26755852842809363
2023-01-11T04:48:12.484Z,0.0
2023-01-11T04:54:34.699Z,0.17391304347826086
2023-01-11T05:00:57.594Z,0.006688963210702341
2023-01-11T05:07:20.657Z,0.08695652173913043
2023-01-11T05:13:43.767Z,0.08695652173913043
2023-01-11T05:20:06.262Z,0.26755852842809363
2023-01-11T05:26:29.242Z,0.0
2023-01-11T05:32:51.220Z,0.09364548494983277
2023-01-11T05:39:43.367Z,0.08695652173913043
2023-01-11T05:50:05.511Z,0.0
2023-01-11T05:56:28.431Z,0.1605351170568562
2023-01-11T06:02:51.091Z,0.013377926421404682
2023-01-11T06:16:06.673Z,0.1806020066889632
2023-01-11T06:22:32.516Z,0.0
2023-01-11T06:28:57.131Z,0.08695652173913043
2023-01-11T06:35:19.302Z,0.17391304347826086
2023-01-11T06:41:41.192Z,0.0
2023-01-11T06:48:04.130Z,0.0
2023-01-11T06:54:26.659Z,0.08695652173913043
2023-01-11T07:00:48.870Z,0.0
2023-01-11T07:09:43.802Z,0.0802675585284281
2023-01-11T07:24:19.482Z,0.1806020066889632
2023-01-11T07:30:56.866Z,0.0
2023-01-11T07:37:28.845Z,0.17391304347826086
2023-01-11T07:43:53.892Z,0.08695652173913043
2023-01-11T08:01:11.241Z,0.08695652173913043
2023-01-11T08:07:34.386Z,0.20735785953177258
2023-01-11T08:17:13.794Z,0.26755852842809363
2023-01-11T08:23:37.480Z,0.5351170568561873
2023-01-11T08:30:03.705Z,0.2608695652173913
2023-01-11T08:36:29.317Z,0.6220735785953178
2023-01-11T08:50:04.013Z,0.34782608695652173
2023-01-11T09:08:30.463Z,0.4013377926421405
2023-01-11T09:21:18.504Z,0.6254180602006689
2023-01-11T09:27:43.932Z,0.6956521739130435
2023-01-11T09:34:09.420Z,0.7491638795986622
2023-01-11T09:40:34.073Z,0.7090301003344481
2023-01-11T09:52:23.894Z,0.07357859531772576
2023-01-11T09:58:49.137Z,0.5351170568561873
2023-01-11T10:23:43.823Z,1.0033444816053512
2023-01-11T10:32:59.504Z,0.25418060200668896
2023-01-11T10:39:25.000Z,0.4214046822742475
2023-01-11T10:45:50.868Z,0.43478260869565216
2023-01-11T10:52:16.175Z,0.7090301003344481
2023-01-11T11:02:32.839Z,0.35451505016722407
2023-01-11T11:08:58.150Z,0.4916387959866221
2023-01-11T11:20:13.040Z,0.7224080267558528
2023-01-11T11:26:38.749Z,0.9230769230769231
2023-01-11T11:35:05.585Z,1.4080267558528428
2023-01-11T11:41:30.498Z,0.8896321070234113
2023-01-11T11:47:56.104Z,0.9230769230769231
2023-01-11T11:54:22.078Z,1.3076923076923077
2023-01-11T12:00:46.638Z,1.100334448160535
2023-01-11T12:11:55.232Z,1.5785953177257526
2023-01-11T12:22:24.634Z,0.7892976588628763
2023-01-11T12:30:33.137Z,1.7591973244147157
2023-01-11T12:36:59.054Z,1.411371237458194
2023-01-11T12:43:24.250Z,1.826086956521739
2023-01-11T12:56:12.482Z,0.9765886287625418
2023-01-11T13:02:37.797Z,0.5217391304347826
2023-01-11T13:09:03.077Z,1.1973244147157192
2023-01-11T13:26:01.028Z,1.3612040133779264
2023-01-11T13:33:08.166Z,1.0033444816053512
2023-01-11T13:44:44.761Z,1.0100334448160535
2023-01-11T13:53:21.075Z,1.4046822742474916
2023-01-11T14:04:50.182Z,1.2508361204013378
2023-01-11T14:11:14.494Z,1.1973244147157192
2023-01-11T14:23:14.966Z,1.1237458193979932
2023-01-11T14:30:16.318Z,1.1036789297658862
2023-01-11T14:36:44.006Z,1.1638795986622072
2023-01-11T14:43:08.960Z,0.8494983277591973
2023-01-11T14:55:20.809Z,0.8963210702341137
2023-01-11T15:13:38.435Z,1.2775919732441472
2023-01-11T15:20:06.060Z,1.1872909698996656
2023-01-11T15:26:28.346Z,1.3846153846153846
2023-01-11T15:32:50.460Z,0.9498327759197325
2023-01-11T15:39:14.020Z,1.4280936454849498
2023-01-11T15:45:36.475Z,1.0100334448160535
2023-01-11T15:51:59.567Z,1.2107023411371238
2023-01-11T15:58:23.939Z,1.6421404682274248
2023-01-11T16:04:46.862Z,1.5217391304347827
2023-01-11T16:11:09.531Z,1.411371237458194
2023-01-11T16:17:48.941Z,1.9732441471571907
2023-01-11T16:24:11.805Z,1.8896321070234114
2023-01-11T16:30:34.107Z,1.6989966555183946
2023-01-11T16:36:57.216Z,1.334448160535117
2023-01-11T16:43:19.584Z,2.0535117056856187
2023-01-11T16:49:43.014Z,2.0903010033444818
2023-01-11T16:56:05.766Z,1.3979933110367893
2023-01-11T17:02:27.818Z,2.040133779264214
2023-01-11T17:08:50.057Z,2.2675585284280935
2023-01-11T17:15:11.944Z,1.7993311036789297
2023-01-11T17:21:35.065Z,1.9665551839464883
2023-01-11T17:27:57.672Z,2.080267558528428
2023-01-11T17:36:23.380Z,1.431438127090301
2023-01-11T17:42:45.977Z,1.7123745819397993
2023-01-11T17:49:08.417Z,1.806020066889632
2023-01-11T17:55:31.415Z,2.1638795986622075
2023-01-11T18:01:53.736Z,1.9063545150501673
2023-01-11T18:08:16.463Z,2.2240802675585285
2023-01-11T18:14:43.743Z,1.5618729096989967
2023-01-11T18:21:06.242Z,1.391304347826087
2023-01-11T18:29:14.884Z,1.5719063545150502
2023-01-11T18:35:55.941Z,2.254180602006689
2023-01-11T18:43:06.273Z,1.7491638795986622
2023-01-11T18:50:58.868Z,2.297658862876254
2023-01-11T18:57:28.508Z,1.6421404682274248
2023-01-11T19:04:26.965Z,1.2374581939799332
2023-01-11T19:14:27.668Z,2.3545150501672243
2023-01-11T19:21:02.788Z,2.0066889632107023
2023-01-11T19:27:35.433Z,1.5518394648829432
2023-01-11T19:34:18.372Z,1.0568561872909699
2023-01-11T19:50:22.964Z,1.6521739130434783
2023-01-11T19:56:54.808Z,1.9163879598662208
2023-01-11T20:03:26.036Z,2.5050167224080266
2023-01-11T20:17:11.218Z,1.1839464882943145
2023-01-11T20:24:20.623Z,1.3612040133779264
2023-01-11T20:35:30.376Z,1.4749163879598661
2023-01-11T20:43:02.438Z,1.8862876254180603
2023-01-11T20:49:45.097Z,1.605351170568562
2023-01-11T20:56:14.582Z,1.5317725752508362
2023-01-11T21:02:45.613Z,1.6889632107023411
2023-01-11T21:12:31.815Z,1.491638795986622
2023-01-11T21:19:09.265Z,1.9765886287625418
2023-01-11T21:25:41.564Z,0.8193979933110368
2023-01-11T21:32:16.292Z,1.5585284280936456
2023-01-11T21:38:49.310Z,2.290969899665552
2023-01-11T21:45:20.946Z,1.0969899665551839
2023-01-11T21:51:53.964Z,1.4782608695652173
2023-01-11T21:59:07.906Z,0.8361204013377926
2023-01-11T22:05:37.188Z,1.4046822742474916
2023-01-11T22:12:14.342Z,1.588628762541806
2023-01-11T22:18:57.639Z,1.9698996655518395
2023-01-11T22:25:29.759Z,1.5384615384615385
2023-01-11T22:32:01.467Z,1.434782608695652
2023-01-11T22:38:32.825Z,1.0
2023-01-11T22:54:12.912Z,1.3177257525083612
2023-01-11T23:12:30.271Z,1.0568561872909699
2023-01-11T23:19:22.216Z,1.434782608695652
2023-01-11T23:26:11.976Z,0.8294314381270903
2023-01-11T23:32:53.756Z,0.39464882943143814
2023-01-11T23:39:32.771Z,0.8294314381270903
2023-01-11T23:46:26.046Z,0.6120401337792643
2023-01-11T23:53:04.866Z,0.9899665551839465
2023-01-11T23:59:59.066Z,1.3879598662207357
